createdAt,value
2017-07-15T00:00:57.579Z,22.70
2017-07-15T00:03:25.112Z,22.70
2017-07-15T00:05:52.640Z,22.60
2017-07-15T00:08:20.206Z,22.70
2017-07-15T00:10:47.753Z,22.70
2017-07-15T00:13:15.328Z,22.60
2017-07-15T00:15:42.886Z,22.60
2017-07-15T00:18:10.445Z,22.60
2017-07-15T00:20:37.994Z,22.60
2017-07-15T00:23:05.536Z,22.50
2017-07-15T00:25:33.100Z,22.60
2017-07-15T00:28:00.647Z,22.60
2017-07-15T00:30:28.310Z,22.60
2017-07-15T00:32:55.893Z,22.60
2017-07-15T00:35:23.423Z,22.50
2017-07-15T00:37:51.068Z,22.50
2017-07-15T00:40:19.364Z,22.40
2017-07-15T00:42:46.924Z,22.40
2017-07-15T00:45:14.496Z,22.40
2017-07-15T00:47:42.080Z,22.40
2017-07-15T00:50:09.599Z,22.50
2017-07-15T00:52:37.134Z,22.40
2017-07-15T00:55:04.701Z,22.40
2017-07-15T00:57:32.264Z,22.40
2017-07-15T00:59:59.788Z,22.40
2017-07-15T01:02:27.341Z,22.30
2017-07-15T01:04:54.897Z,22.30
2017-07-15T01:07:22.438Z,22.40
2017-07-15T01:09:49.998Z,22.30
2017-07-15T01:12:17.589Z,22.30
2017-07-15T01:14:45.149Z,22.30
2017-07-15T01:17:12.697Z,22.30
2017-07-15T01:19:40.248Z,22.30
2017-07-15T01:22:07.787Z,22.30
2017-07-15T01:24:36.089Z,22.30
2017-07-15T01:27:03.617Z,22.30
2017-07-15T01:29:31.160Z,22.30
2017-07-15T01:31:58.764Z,22.20
2017-07-15T01:34:26.310Z,22.20
2017-07-15T01:36:53.836Z,22.20
2017-07-15T01:39:21.456Z,22.10
2017-07-15T01:41:48.983Z,22.10
2017-07-15T01:44:16.508Z,22.10
2017-07-15T01:46:44.065Z,22.10
2017-07-15T01:49:11.598Z,22.10
2017-07-15T01:51:39.163Z,22.20
2017-07-15T01:54:07.845Z,22.00
2017-07-15T01:56:35.388Z,21.90
2017-07-15T01:59:02.908Z,22.00
2017-07-15T02:01:30.458Z,21.80
2017-07-15T02:03:57.980Z,21.80
2017-07-15T02:06:25.520Z,21.90
2017-07-15T02:08:53.056Z,21.80
2017-07-15T02:11:20.588Z,21.80
2017-07-15T02:13:48.120Z,21.70
2017-07-15T02:16:15.642Z,21.80
2017-07-15T02:18:43.171Z,21.80
2017-07-15T02:21:10.741Z,21.70
2017-07-15T02:23:38.327Z,21.70
2017-07-15T02:26:05.849Z,21.70
2017-07-15T02:28:34.152Z,21.70
2017-07-15T02:31:01.688Z,21.70
2017-07-15T02:33:29.227Z,21.70
2017-07-15T02:35:56.800Z,21.70
2017-07-15T02:38:24.345Z,21.70
2017-07-15T02:40:51.877Z,21.80
2017-07-15T02:43:19.397Z,21.80
2017-07-15T02:45:46.948Z,21.70
2017-07-15T02:48:14.470Z,21.70
2017-07-15T02:50:42.035Z,21.80
2017-07-15T02:53:09.573Z,21.80
2017-07-15T02:55:37.103Z,21.80
2017-07-15T02:58:04.633Z,21.80
2017-07-15T03:00:32.225Z,21.90
2017-07-15T03:02:59.772Z,21.90
2017-07-15T03:05:27.365Z,21.90
2017-07-15T03:07:54.904Z,21.90
2017-07-15T03:10:22.480Z,21.90
2017-07-15T03:12:50.012Z,21.90
2017-07-15T03:15:17.544Z,21.90
2017-07-15T03:17:45.085Z,22.00
2017-07-15T03:20:12.629Z,22.00
2017-07-15T03:22:40.175Z,21.90
2017-07-15T03:25:07.705Z,21.90
2017-07-15T03:27:35.339Z,22.00
2017-07-15T03:30:03.652Z,21.90
2017-07-15T03:32:31.215Z,21.90
2017-07-15T03:34:58.754Z,22.00
2017-07-15T03:37:27.069Z,22.00
2017-07-15T03:39:54.595Z,21.90
2017-07-15T03:42:22.159Z,21.80
2017-07-15T03:44:49.985Z,21.70
2017-07-15T03:47:17.507Z,21.70
2017-07-15T03:49:45.063Z,21.80
2017-07-15T03:52:12.622Z,21.70
2017-07-15T03:54:40.284Z,21.70
2017-07-15T03:57:07.816Z,21.80
2017-07-15T03:59:35.371Z,21.80
2017-07-15T04:02:02.892Z,21.90
2017-07-15T04:04:30.429Z,21.90
2017-07-15T04:06:57.949Z,21.90
2017-07-15T04:09:25.504Z,22.00
2017-07-15T04:11:53.036Z,22.00
2017-07-15T04:14:20.721Z,22.00
2017-07-15T04:16:48.226Z,22.00
2017-07-15T04:19:15.773Z,22.10
2017-07-15T04:21:43.296Z,22.00
2017-07-15T04:24:11.575Z,22.00
2017-07-15T04:26:39.881Z,21.90
2017-07-15T04:29:07.437Z,22.00
2017-07-15T04:31:35.015Z,22.00
2017-07-15T04:34:02.555Z,22.00
2017-07-15T04:36:30.110Z,22.10
2017-07-15T04:38:57.662Z,22.00
2017-07-15T04:41:25.240Z,22.00
2017-07-15T04:43:52.764Z,21.90
2017-07-15T04:46:20.380Z,21.90
2017-07-15T04:48:48.261Z,21.90
2017-07-15T04:51:15.801Z,21.90
2017-07-15T04:53:43.399Z,21.90
2017-07-15T04:56:10.916Z,21.90
2017-07-15T04:58:38.492Z,22.00
2017-07-15T05:01:06.029Z,22.00
2017-07-15T05:03:33.613Z,22.00
2017-07-15T05:06:01.217Z,22.00
2017-07-15T05:08:28.808Z,22.00
2017-07-15T05:10:56.327Z,22.00
2017-07-15T05:13:23.853Z,21.90
2017-07-15T05:15:51.399Z,21.90
2017-07-15T05:18:19.038Z,22.00
2017-07-15T05:20:46.564Z,22.00
2017-07-15T05:23:14.111Z,22.00
2017-07-15T05:25:41.808Z,21.90
2017-07-15T05:28:09.348Z,22.00
2017-07-15T05:30:37.649Z,22.00
2017-07-15T05:33:05.193Z,22.00
2017-07-15T05:35:32.743Z,22.10
2017-07-15T05:38:01.084Z,22.10
2017-07-15T05:40:28.670Z,22.10
2017-07-15T05:42:56.189Z,22.00
2017-07-15T05:45:23.752Z,22.00
2017-07-15T05:47:51.262Z,22.00
2017-07-15T05:50:19.539Z,22.10
2017-07-15T05:52:47.865Z,22.20
2017-07-15T05:55:15.379Z,22.20
2017-07-15T05:57:43.680Z,22.40
2017-07-15T06:00:11.214Z,22.40
2017-07-15T06:02:39.556Z,22.50
2017-07-15T06:05:07.087Z,22.50
2017-07-15T06:07:34.679Z,22.50
2017-07-15T06:10:03.124Z,22.50
2017-07-15T06:12:30.664Z,22.40
2017-07-15T06:14:58.203Z,22.50
2017-07-15T06:17:25.770Z,22.60
2017-07-15T06:19:53.307Z,22.60
2017-07-15T06:22:20.883Z,22.40
2017-07-15T06:24:48.400Z,22.40
2017-07-15T06:27:15.946Z,22.60
2017-07-15T06:29:43.496Z,22.40
2017-07-15T06:32:11.008Z,22.30
2017-07-15T06:34:38.555Z,22.30
2017-07-15T06:37:06.094Z,22.40
2017-07-15T06:39:33.627Z,22.60
2017-07-15T06:42:01.216Z,22.70
2017-07-15T06:44:28.776Z,22.90
2017-07-15T06:46:56.301Z,23.00
2017-07-15T06:49:23.836Z,23.10
2017-07-15T06:51:51.400Z,23.30
2017-07-15T06:54:18.932Z,23.30
2017-07-15T06:56:46.476Z,23.50
2017-07-15T06:59:14.009Z,23.70
2017-07-15T07:01:41.578Z,23.90
2017-07-15T07:04:09.128Z,24.10
2017-07-15T07:06:36.702Z,24.20
2017-07-15T07:09:04.218Z,24.00
2017-07-15T07:11:31.864Z,24.10
2017-07-15T07:13:59.389Z,24.10
2017-07-15T07:16:26.941Z,24.00
2017-07-15T07:18:54.464Z,24.20
2017-07-15T07:21:22.016Z,24.40
2017-07-15T07:23:49.561Z,24.60
2017-07-15T07:26:17.129Z,24.70
2017-07-15T07:28:44.828Z,24.80
2017-07-15T07:31:12.370Z,24.90
2017-07-15T07:33:39.904Z,24.90
2017-07-15T07:36:07.480Z,24.90
2017-07-15T07:38:35.008Z,24.80
2017-07-15T07:41:02.524Z,24.70
2017-07-15T07:43:30.099Z,24.80
2017-07-15T07:45:57.679Z,24.90
2017-07-15T07:48:25.261Z,24.90
2017-07-15T07:50:52.880Z,25.00
2017-07-15T07:53:20.424Z,25.00
2017-07-15T07:55:47.967Z,25.10
2017-07-15T07:58:15.502Z,25.20
2017-07-15T08:00:43.792Z,25.50
2017-07-15T08:03:11.347Z,25.50
2017-07-15T08:05:39.666Z,25.50
2017-07-15T08:08:07.193Z,25.50
2017-07-15T08:10:34.736Z,25.40
2017-07-15T08:13:02.285Z,25.60
2017-07-15T08:15:30.586Z,26.10
2017-07-15T08:17:58.129Z,26.10
2017-07-15T08:20:27.393Z,26.10
2017-07-15T08:22:54.940Z,26.00
2017-07-15T08:25:22.477Z,26.40
2017-07-15T08:27:50.024Z,26.60
2017-07-15T08:30:17.584Z,26.70
2017-07-15T08:32:45.108Z,26.70
2017-07-15T08:35:12.696Z,26.80
2017-07-15T08:37:40.220Z,27.00
2017-07-15T08:40:07.757Z,27.00
2017-07-15T08:42:35.322Z,27.10
2017-07-15T08:45:02.883Z,27.00
2017-07-15T08:47:30.421Z,27.00
2017-07-15T08:49:57.948Z,26.90
2017-07-15T08:52:25.485Z,26.80
2017-07-15T08:54:53.024Z,26.70
2017-07-15T08:57:20.628Z,26.70
2017-07-15T08:59:48.153Z,26.70
2017-07-15T09:02:15.744Z,26.50
2017-07-15T09:04:43.288Z,26.40
2017-07-15T09:07:10.831Z,26.00
2017-07-15T09:09:38.381Z,25.90
2017-07-15T09:12:05.921Z,25.70
2017-07-15T09:14:33.489Z,25.70
2017-07-15T09:17:01.029Z,25.70
2017-07-15T09:19:28.616Z,25.60
2017-07-15T09:21:56.146Z,25.70
2017-07-15T09:24:23.749Z,25.90
2017-07-15T09:26:51.273Z,26.00
2017-07-15T09:29:18.827Z,26.10
2017-07-15T09:31:46.409Z,26.30
2017-07-15T09:34:13.963Z,26.10
2017-07-15T09:36:41.491Z,26.20
2017-07-15T09:39:09.033Z,26.40
2017-07-15T09:41:36.598Z,26.50
2017-07-15T09:44:04.128Z,26.60
2017-07-15T09:46:31.669Z,26.50
2017-07-15T09:48:59.207Z,26.60
2017-07-15T09:51:26.809Z,26.60
2017-07-15T09:53:54.359Z,26.70
2017-07-15T09:56:21.930Z,26.80
2017-07-15T09:58:49.459Z,26.70
2017-07-15T10:01:17.000Z,26.70
2017-07-15T10:03:44.558Z,26.90
2017-07-15T10:06:12.221Z,26.90
2017-07-15T10:08:39.760Z,27.10
2017-07-15T10:11:07.306Z,27.40
2017-07-15T10:13:35.625Z,27.80
2017-07-15T10:16:03.156Z,27.80
2017-07-15T10:18:30.696Z,27.90
2017-07-15T10:20:58.984Z,28.70
2017-07-15T10:23:26.531Z,28.70
2017-07-15T10:25:54.065Z,29.20
2017-07-15T10:28:21.603Z,29.40
2017-07-15T10:30:49.119Z,29.30
2017-07-15T10:33:16.652Z,29.30
2017-07-15T10:35:44.176Z,29.30
2017-07-15T10:38:11.775Z,29.10
2017-07-15T10:40:39.377Z,29.00
2017-07-15T10:43:06.903Z,28.70
2017-07-15T10:45:34.495Z,28.50
2017-07-15T10:48:02.117Z,28.30
2017-07-15T10:50:29.691Z,28.40
2017-07-15T10:52:57.240Z,28.40
2017-07-15T10:55:24.792Z,28.30
2017-07-15T10:57:52.332Z,28.40
2017-07-15T11:00:19.870Z,28.40
2017-07-15T11:02:47.436Z,28.10
2017-07-15T11:05:14.976Z,27.90
2017-07-15T11:07:42.489Z,27.60
2017-07-15T11:10:10.024Z,27.70
2017-07-15T11:12:37.560Z,27.50
2017-07-15T11:15:06.063Z,27.40
2017-07-15T11:17:33.594Z,27.20
2017-07-15T11:20:01.135Z,27.30
2017-07-15T11:22:28.711Z,27.10
2017-07-15T11:24:56.243Z,27.30
2017-07-15T11:27:23.797Z,27.80
2017-07-15T11:29:52.101Z,27.70
2017-07-15T11:32:19.630Z,27.70
2017-07-15T11:34:47.926Z,28.40
2017-07-15T11:37:15.454Z,28.40
2017-07-15T11:39:43.001Z,28.50
2017-07-15T11:42:10.552Z,28.50
2017-07-15T11:44:39.411Z,28.60
2017-07-15T11:47:06.963Z,28.40
2017-07-15T11:49:36.180Z,28.40
2017-07-15T11:52:04.772Z,29.40
2017-07-15T11:54:32.430Z,29.50
2017-07-15T11:57:00.014Z,30.90
2017-07-15T11:59:27.552Z,31.90
2017-07-15T12:01:55.089Z,31.80
2017-07-15T12:04:22.688Z,31.20
2017-07-15T12:06:50.206Z,30.80
2017-07-15T12:09:17.737Z,30.40
2017-07-15T12:11:45.285Z,30.00
2017-07-15T12:14:12.868Z,29.70
2017-07-15T12:16:40.460Z,29.70
2017-07-15T12:19:07.993Z,29.90
2017-07-15T12:21:35.534Z,30.80
2017-07-15T12:24:03.073Z,32.70
2017-07-15T12:26:30.602Z,34.50
2017-07-15T12:28:58.215Z,34.90
2017-07-15T12:31:25.755Z,35.10
2017-07-15T12:33:53.279Z,36.20
2017-07-15T12:36:21.760Z,36.20
2017-07-15T12:38:49.286Z,35.30
2017-07-15T12:41:17.009Z,34.50
2017-07-15T12:43:44.524Z,34.40
2017-07-15T12:46:12.066Z,33.50
2017-07-15T12:48:39.581Z,34.60
2017-07-15T12:51:07.113Z,34.50
2017-07-15T12:53:34.687Z,33.60
2017-07-15T12:56:02.326Z,32.60
2017-07-15T12:58:29.844Z,32.00
2017-07-15T13:00:57.400Z,31.40
2017-07-15T13:03:24.920Z,31.20
2017-07-15T13:05:52.487Z,30.90
2017-07-15T13:08:20.025Z,30.70
2017-07-15T13:10:47.605Z,30.30
2017-07-15T13:13:15.145Z,30.00
2017-07-15T13:15:42.673Z,30.00
2017-07-15T13:18:10.293Z,30.10
2017-07-15T13:20:37.809Z,30.10
2017-07-15T13:23:05.388Z,30.20
2017-07-15T13:25:32.945Z,30.40
2017-07-15T13:28:00.512Z,30.40
2017-07-15T13:30:28.112Z,30.40
2017-07-15T13:32:55.657Z,30.20
2017-07-15T13:35:23.175Z,30.10
2017-07-15T13:37:50.775Z,30.00
2017-07-15T13:40:18.513Z,29.80
2017-07-15T13:42:46.041Z,29.60
2017-07-15T13:45:13.600Z,30.20
2017-07-15T13:47:41.120Z,31.00
2017-07-15T13:50:08.649Z,31.30
2017-07-15T13:52:36.251Z,31.10
2017-07-15T13:55:04.785Z,31.00
2017-07-15T13:57:32.412Z,30.70
2017-07-15T13:59:59.953Z,30.40
2017-07-15T14:02:27.473Z,30.50
2017-07-15T14:04:55.032Z,30.40
2017-07-15T14:07:22.553Z,30.60
2017-07-15T14:09:50.127Z,31.30
2017-07-15T14:12:17.646Z,31.70
2017-07-15T14:14:45.157Z,31.50
2017-07-15T14:17:12.684Z,31.80
2017-07-15T14:19:40.195Z,32.30
2017-07-15T14:22:07.732Z,32.30
2017-07-15T14:24:35.240Z,32.20
2017-07-15T14:27:02.772Z,32.20
2017-07-15T14:29:30.332Z,31.70
2017-07-15T14:31:57.961Z,31.70
2017-07-15T14:34:25.555Z,31.60
2017-07-15T14:36:53.090Z,31.40
2017-07-15T14:39:20.653Z,31.00
2017-07-15T14:41:48.208Z,30.70
2017-07-15T14:44:15.740Z,30.60
2017-07-15T14:46:43.256Z,30.60
2017-07-15T14:49:10.787Z,30.60
2017-07-15T14:51:38.344Z,30.70
2017-07-15T14:54:05.906Z,30.80
2017-07-15T14:56:33.414Z,30.90
2017-07-15T14:59:00.958Z,30.90
2017-07-15T15:01:28.495Z,31.00
2017-07-15T15:03:56.059Z,31.00
2017-07-15T15:06:23.641Z,31.10
2017-07-15T15:08:51.188Z,31.10
2017-07-15T15:11:18.771Z,31.00
2017-07-15T15:13:46.307Z,30.90
2017-07-15T15:16:13.849Z,30.70
2017-07-15T15:18:41.416Z,30.60
2017-07-15T15:21:08.940Z,30.50
2017-07-15T15:23:36.450Z,30.40
2017-07-15T15:26:04.014Z,30.40
2017-07-15T15:28:31.541Z,30.50
2017-07-15T15:30:59.084Z,30.50
2017-07-15T15:33:26.619Z,30.50
2017-07-15T15:35:54.152Z,30.40
2017-07-15T15:38:21.701Z,30.40
2017-07-15T15:40:49.247Z,30.40
2017-07-15T15:43:16.790Z,30.50
2017-07-15T15:45:44.432Z,30.60
2017-07-15T15:48:11.975Z,30.60
2017-07-15T15:50:39.526Z,30.60
2017-07-15T15:53:07.071Z,30.60
2017-07-15T15:55:34.609Z,30.60
2017-07-15T15:58:02.208Z,30.60
2017-07-15T16:00:29.738Z,30.60
2017-07-15T16:02:57.312Z,30.50
2017-07-15T16:05:24.846Z,30.50
2017-07-15T16:07:52.393Z,30.40
2017-07-15T16:10:19.938Z,30.40
2017-07-15T16:12:47.492Z,30.30
2017-07-15T16:15:15.020Z,30.30
2017-07-15T16:17:42.602Z,30.40
2017-07-15T16:20:10.223Z,30.30
2017-07-15T16:22:37.769Z,30.30
2017-07-15T16:25:05.325Z,30.30
2017-07-15T16:27:32.874Z,30.30
2017-07-15T16:30:00.496Z,30.30
2017-07-15T16:32:28.053Z,30.20
2017-07-15T16:34:55.614Z,30.20
2017-07-15T16:37:23.138Z,30.10
2017-07-15T16:39:50.694Z,30.00
2017-07-15T16:42:18.260Z,30.00
2017-07-15T16:44:45.826Z,30.00
2017-07-15T16:47:13.363Z,30.00
2017-07-15T16:49:40.906Z,30.00
2017-07-15T16:52:08.505Z,29.90
2017-07-15T16:54:36.065Z,29.90
2017-07-15T16:57:03.667Z,29.80
2017-07-15T16:59:31.218Z,29.70
2017-07-15T17:01:58.832Z,29.70
2017-07-15T17:04:26.386Z,29.70
2017-07-15T17:06:53.940Z,29.60
2017-07-15T17:09:21.497Z,29.50
2017-07-15T17:11:49.079Z,29.40
2017-07-15T17:14:16.634Z,29.40
2017-07-15T17:16:44.186Z,29.40
2017-07-15T17:19:11.758Z,29.30
2017-07-15T17:21:39.369Z,29.30
2017-07-15T17:24:06.909Z,29.30
2017-07-15T17:26:34.444Z,29.40
2017-07-15T17:29:02.011Z,29.40
2017-07-15T17:31:29.601Z,29.40
2017-07-15T17:33:57.140Z,29.40
2017-07-15T17:36:24.669Z,29.40
2017-07-15T17:38:52.218Z,29.40
2017-07-15T17:41:19.795Z,29.30
2017-07-15T17:43:47.376Z,29.30
2017-07-15T17:46:14.957Z,29.30
2017-07-15T17:48:42.525Z,29.30
2017-07-15T17:51:10.045Z,29.20
2017-07-15T17:53:37.592Z,29.20
2017-07-15T17:56:05.114Z,29.20
2017-07-15T17:58:32.658Z,29.20
2017-07-15T18:01:00.212Z,29.10
2017-07-15T18:03:27.749Z,29.10
2017-07-15T18:05:55.338Z,29.00
2017-07-15T18:08:22.897Z,29.00
2017-07-15T18:10:50.467Z,29.00
2017-07-15T18:13:18.013Z,28.90
2017-07-15T18:15:45.577Z,28.90
2017-07-15T18:18:13.129Z,28.80
2017-07-15T18:20:40.726Z,28.80
2017-07-15T18:23:08.260Z,28.70
2017-07-15T18:25:35.810Z,28.70
2017-07-15T18:28:03.337Z,28.70
2017-07-15T18:30:30.895Z,28.60
2017-07-15T18:32:58.477Z,28.60
2017-07-15T18:35:26.022Z,28.60
2017-07-15T18:37:53.557Z,28.50
2017-07-15T18:40:21.140Z,28.40
2017-07-15T18:42:48.766Z,28.40
2017-07-15T18:45:16.395Z,28.40
2017-07-15T18:47:43.957Z,28.30
2017-07-15T18:50:11.528Z,28.30
2017-07-15T18:52:39.093Z,28.30
2017-07-15T18:55:06.675Z,28.30
2017-07-15T18:57:34.301Z,28.20
2017-07-15T19:00:01.834Z,28.20
2017-07-15T19:02:29.481Z,28.10
2017-07-15T19:04:57.178Z,28.20
2017-07-15T19:07:24.725Z,28.10
2017-07-15T19:09:52.279Z,28.10
2017-07-15T19:12:19.886Z,28.00
2017-07-15T19:14:47.445Z,28.00
2017-07-15T19:17:15.026Z,28.00
2017-07-15T19:19:42.616Z,27.90
2017-07-15T19:22:10.163Z,27.90
2017-07-15T19:24:37.758Z,27.80
2017-07-15T19:27:05.309Z,27.80
2017-07-15T19:29:32.874Z,27.80
2017-07-15T19:32:00.419Z,27.80
2017-07-15T19:34:28.027Z,27.80
2017-07-15T19:36:55.549Z,27.70
2017-07-15T19:39:23.102Z,27.70
2017-07-15T19:41:51.573Z,27.70
2017-07-15T19:44:19.219Z,27.60
2017-07-15T19:46:46.755Z,27.60
2017-07-15T19:49:14.303Z,27.60
2017-07-15T19:51:41.830Z,27.60
2017-07-15T19:54:09.399Z,27.60
2017-07-15T19:56:37.104Z,27.50
2017-07-15T19:59:04.697Z,27.50
2017-07-15T20:01:33.011Z,27.50
2017-07-15T20:04:00.565Z,27.50
2017-07-15T20:06:28.147Z,27.40
2017-07-15T20:08:55.753Z,27.40
2017-07-15T20:11:24.069Z,27.40
2017-07-15T20:13:51.605Z,27.40
2017-07-15T20:16:19.202Z,27.40
2017-07-15T20:18:46.778Z,27.40
2017-07-15T20:21:14.337Z,27.30
2017-07-15T20:23:42.642Z,27.30
2017-07-15T20:26:10.990Z,27.30
2017-07-15T20:28:38.553Z,27.20
2017-07-15T20:31:06.107Z,27.30
2017-07-15T20:33:33.666Z,27.20
2017-07-15T20:36:06.886Z,27.20
2017-07-15T20:38:34.419Z,27.20
2017-07-15T20:41:02.029Z,27.20
2017-07-15T20:43:29.582Z,27.20
2017-07-15T20:46:00.838Z,27.20
2017-07-15T20:48:28.489Z,27.10
2017-07-15T20:50:56.039Z,27.10
2017-07-15T20:53:30.190Z,27.10
2017-07-15T20:55:57.719Z,27.10
2017-07-15T20:58:25.281Z,27.10
2017-07-15T21:00:53.590Z,27.00
2017-07-15T21:03:21.925Z,27.00
2017-07-15T21:05:49.590Z,27.00
2017-07-15T21:08:17.174Z,27.00
2017-07-15T21:10:44.709Z,27.00
2017-07-15T21:13:12.286Z,27.00
2017-07-15T21:15:39.873Z,27.00
2017-07-15T21:18:07.470Z,27.00
2017-07-15T21:20:35.085Z,27.00
2017-07-15T21:23:02.662Z,27.00
2017-07-15T21:25:30.289Z,27.00
2017-07-15T21:27:57.843Z,27.00
2017-07-15T21:30:25.445Z,27.00
2017-07-15T21:32:53.005Z,26.90
2017-07-15T21:35:20.581Z,26.90
2017-07-15T21:37:48.158Z,26.90
2017-07-15T21:40:15.692Z,26.90
2017-07-15T21:42:43.281Z,26.90
2017-07-15T21:45:10.840Z,26.90
2017-07-15T21:47:38.365Z,26.90
2017-07-15T21:50:05.912Z,26.90
2017-07-15T21:52:33.454Z,26.80
2017-07-15T21:55:00.993Z,26.80
2017-07-15T21:57:28.549Z,26.80
2017-07-15T21:59:56.146Z,26.80
2017-07-15T22:02:23.669Z,26.80
2017-07-15T22:04:51.249Z,26.80
2017-07-15T22:07:18.786Z,26.80
2017-07-15T22:09:46.342Z,26.80
2017-07-15T22:12:14.632Z,26.80
2017-07-15T22:14:42.939Z,26.80
2017-07-15T22:17:10.511Z,26.80
2017-07-15T22:19:38.069Z,26.80
2017-07-15T22:22:05.675Z,26.70
2017-07-15T22:24:33.201Z,26.80
2017-07-15T22:27:00.758Z,26.70
2017-07-15T22:29:28.299Z,26.70
2017-07-15T22:31:55.854Z,26.70
2017-07-15T22:34:23.387Z,26.70
2017-07-15T22:36:50.934Z,26.70
2017-07-15T22:39:18.548Z,26.70
2017-07-15T22:41:46.144Z,26.70
2017-07-15T22:44:13.680Z,26.70
2017-07-15T22:46:41.246Z,26.70
2017-07-15T22:49:08.813Z,26.70
2017-07-15T22:51:36.380Z,26.70
2017-07-15T22:54:03.922Z,26.60
2017-07-15T22:56:31.473Z,26.60
2017-07-15T22:58:59.034Z,26.60
2017-07-15T23:01:26.610Z,26.60
2017-07-15T23:03:54.182Z,26.60
2017-07-15T23:06:22.521Z,26.60
2017-07-15T23:08:50.095Z,26.60
2017-07-15T23:11:17.641Z,26.60
2017-07-15T23:13:45.210Z,26.60
2017-07-15T23:16:12.758Z,26.60
2017-07-15T23:18:40.320Z,26.60
2017-07-15T23:21:07.878Z,26.50
2017-07-15T23:23:35.428Z,26.60
2017-07-15T23:26:02.986Z,26.50
2017-07-15T23:28:30.540Z,26.50
2017-07-15T23:30:58.197Z,26.50
2017-07-15T23:33:25.741Z,26.50
2017-07-15T23:35:53.319Z,26.50
2017-07-15T23:38:20.863Z,26.50
2017-07-15T23:40:48.456Z,26.50
2017-07-15T23:43:15.993Z,26.50
2017-07-15T23:45:43.541Z,26.50
2017-07-15T23:48:11.078Z,26.50
2017-07-15T23:50:39.471Z,26.40
2017-07-15T23:53:07.041Z,26.40
2017-07-15T23:55:34.594Z,26.40
2017-07-15T23:58:02.886Z,26.40
